UGKO

Kutaisi/Kopitnari International Airport

Airport
ICAO code
UGKO
IATA Code
KUT
Summary
ICAO Region
APAC
ICAO Territory
Location

Kutaisi,

Serving
Kutaisi
Elevation
223 ft
Coordinates
42° 10' 36" N , 42° 28' 57" E
Metar
Observation
UGKO 061500Z 07033G47KT 9999 BKN110 08/M02 Q1002 NOSIG
Station
KOPITNARI
Date/Time
2023-02-06 16:00:00
Wind direction
70°
Wind speed
33 kts
Lowest cloud amount
broken clouds
Temperature
8°C
Dew point
-2°C
Humidity
49%
QNH
1002 hPa
Weather condition
n/a

Description

Kutaisi Airport also known as David the Builder Kutaisi International Airport is an airport located 14 km west of Kutaisi, the second largest city in Georgia and capital of the western region of Imereti. It is one of three international airports currently in operation in Georgia, along with Tbilisi International Airport serving the Georgian capital and Batumi International Airport near the Adjara Black Sea resort.

Runways

Designator Length Width Surface Rops
8/26 2500 44 CON No/No

Airport map

Aerial View

SKYbrary Partners:

Safety knowledge contributed by: